sensor_id;sensor_type;location;lat;lon;timestamp;P1;durP1;ratioP1;P2;durP2;ratioP2
3726;SDS011;1879;45.876;12.300;2023-12-22T00:01:46;55.57;;;50.17;;
3726;SDS011;1879;45.876;12.300;2023-12-22T00:04:13;58.47;;;52.77;;
3726;SDS011;1879;45.876;12.300;2023-12-22T00:06:41;56.80;;;50.87;;
3726;SDS011;1879;45.876;12.300;2023-12-22T00:09:09;58.40;;;52.70;;
3726;SDS011;1879;45.876;12.300;2023-12-22T00:11:36;57.43;;;51.83;;
3726;SDS011;1879;45.876;12.300;2023-12-22T00:14:03;64.50;;;57.70;;
3726;SDS011;1879;45.876;12.300;2023-12-22T00:16:30;63.47;;;57.40;;
3726;SDS011;1879;45.876;12.300;2023-12-22T00:18:57;64.73;;;58.30;;
3726;SDS011;1879;45.876;12.300;2023-12-22T00:21:24;60.50;;;54.70;;
3726;SDS011;1879;45.876;12.300;2023-12-22T00:23:52;65.20;;;58.87;;
3726;SDS011;1879;45.876;12.300;2023-12-22T00:26:21;48.87;;;44.00;;
3726;SDS011;1879;45.876;12.300;2023-12-22T00:28:48;51.27;;;45.80;;
3726;SDS011;1879;45.876;12.300;2023-12-22T00:31:15;51.80;;;46.90;;
3726;SDS011;1879;45.876;12.300;2023-12-22T00:33:42;48.40;;;43.80;;
3726;SDS011;1879;45.876;12.300;2023-12-22T00:36:09;48.37;;;43.77;;
3726;SDS011;1879;45.876;12.300;2023-12-22T00:38:35;53.07;;;47.80;;
3726;SDS011;1879;45.876;12.300;2023-12-22T00:41:02;46.87;;;42.17;;
3726;SDS011;1879;45.876;12.300;2023-12-22T00:43:31;52.00;;;47.07;;
3726;SDS011;1879;45.876;12.300;2023-12-22T00:45:58;44.30;;;40.10;;
3726;SDS011;1879;45.876;12.300;2023-12-22T00:48:24;47.60;;;43.30;;
3726;SDS011;1879;45.876;12.300;2023-12-22T00:50:51;39.73;;;36.13;;
3726;SDS011;1879;45.876;12.300;2023-12-22T00:53:18;37.57;;;34.07;;
3726;SDS011;1879;45.876;12.300;2023-12-22T00:55:45;37.00;;;33.57;;
3726;SDS011;1879;45.876;12.300;2023-12-22T00:58:12;38.37;;;34.77;;
3726;SDS011;1879;45.876;12.300;2023-12-22T01:00:40;41.30;;;37.60;;
3726;SDS011;1879;45.876;12.300;2023-12-22T01:03:07;38.10;;;33.93;;
3726;SDS011;1879;45.876;12.300;2023-12-22T01:05:37;37.77;;;34.07;;
3726;SDS011;1879;45.876;12.300;2023-12-22T01:08:04;41.27;;;37.30;;
3726;SDS011;1879;45.876;12.300;2023-12-22T01:10:31;37.17;;;33.43;;
3726;SDS011;1879;45.876;12.300;2023-12-22T01:12:58;39.10;;;35.00;;
3726;SDS011;1879;45.876;12.300;2023-12-22T01:15:25;32.93;;;30.03;;
3726;SDS011;1879;45.876;12.300;2023-12-22T01:17:53;32.77;;;29.67;;
3726;SDS011;1879;45.876;12.300;2023-12-22T01:20:20;32.40;;;29.30;;
3726;SDS011;1879;45.876;12.300;2023-12-22T01:22:47;32.17;;;29.37;;
3726;SDS011;1879;45.876;12.300;2023-12-22T01:25:14;30.10;;;27.43;;
3726;SDS011;1879;45.876;12.300;2023-12-22T01:27:40;32.30;;;29.30;;
3726;SDS011;1879;45.876;12.300;2023-12-22T01:30:08;34.10;;;30.77;;
3726;SDS011;1879;45.876;12.300;2023-12-22T01:32:35;34.30;;;30.93;;
3726;SDS011;1879;45.876;12.300;2023-12-22T01:35:03;34.80;;;31.50;;
3726;SDS011;1879;45.876;12.300;2023-12-22T01:37:34;29.30;;;26.50;;
3726;SDS011;1879;45.876;12.300;2023-12-22T01:40:01;28.13;;;25.33;;
3726;SDS011;1879;45.876;12.300;2023-12-22T01:42:28;31.33;;;28.33;;
3726;SDS011;1879;45.876;12.300;2023-12-22T01:44:55;31.40;;;28.50;;
3726;SDS011;1879;45.876;12.300;2023-12-22T01:47:22;27.87;;;25.17;;
3726;SDS011;1879;45.876;12.300;2023-12-22T01:49:49;29.37;;;26.40;;
3726;SDS011;1879;45.876;12.300;2023-12-22T01:52:18;29.53;;;26.63;;
3726;SDS011;1879;45.876;12.300;2023-12-22T01:54:45;31.67;;;28.47;;
3726;SDS011;1879;45.876;12.300;2023-12-22T01:57:13;30.07;;;27.20;;
3726;SDS011;1879;45.876;12.300;2023-12-22T01:59:42;28.70;;;26.17;;
3726;SDS011;1879;45.876;12.300;2023-12-22T02:02:10;25.13;;;22.73;;
3726;SDS011;1879;45.876;12.300;2023-12-22T02:04:37;27.50;;;24.90;;
3726;SDS011;1879;45.876;12.300;2023-12-22T02:07:05;28.40;;;25.53;;
3726;SDS011;1879;45.876;12.300;2023-12-22T02:09:35;26.37;;;23.83;;
3726;SDS011;1879;45.876;12.300;2023-12-22T02:12:02;25.43;;;23.13;;
3726;SDS011;1879;45.876;12.300;2023-12-22T02:14:29;23.90;;;21.70;;
3726;SDS011;1879;45.876;12.300;2023-12-22T02:17:00;24.23;;;21.77;;
3726;SDS011;1879;45.876;12.300;2023-12-22T02:19:40;25.17;;;22.77;;
3726;SDS011;1879;45.876;12.300;2023-12-22T02:22:09;24.33;;;22.03;;
3726;SDS011;1879;45.876;12.300;2023-12-22T02:24:39;24.63;;;22.57;;
3726;SDS011;1879;45.876;12.300;2023-12-22T02:27:08;25.57;;;23.33;;
3726;SDS011;1879;45.876;12.300;2023-12-22T02:29:42;26.07;;;23.60;;
3726;SDS011;1879;45.876;12.300;2023-12-22T02:32:16;26.00;;;23.70;;
3726;SDS011;1879;45.876;12.300;2023-12-22T02:34:49;26.27;;;23.83;;
3726;SDS011;1879;45.876;12.300;2023-12-22T02:37:18;25.73;;;23.13;;
3726;SDS011;1879;45.876;12.300;2023-12-22T02:39:49;25.70;;;23.40;;
3726;SDS011;1879;45.876;12.300;2023-12-22T02:42:17;20.90;;;19.17;;
3726;SDS011;1879;45.876;12.300;2023-12-22T02:44:48;24.17;;;22.10;;
3726;SDS011;1879;45.876;12.300;2023-12-22T02:47:15;24.93;;;22.73;;
3726;SDS011;1879;45.876;12.300;2023-12-22T02:49:42;24.07;;;21.87;;
3726;SDS011;1879;45.876;12.300;2023-12-22T02:52:09;24.67;;;22.23;;
3726;SDS011;1879;45.876;12.300;2023-12-22T02:54:36;23.37;;;21.23;;
3726;SDS011;1879;45.876;12.300;2023-12-22T02:57:06;21.70;;;19.80;;
3726;SDS011;1879;45.876;12.300;2023-12-22T02:59:33;21.70;;;19.60;;
3726;SDS011;1879;45.876;12.300;2023-12-22T03:02:00;19.47;;;17.57;;
3726;SDS011;1879;45.876;12.300;2023-12-22T03:04:27;20.70;;;18.80;;
3726;SDS011;1879;45.876;12.300;2023-12-22T03:06:54;18.50;;;16.67;;
3726;SDS011;1879;45.876;12.300;2023-12-22T03:09:21;20.40;;;18.67;;
3726;SDS011;1879;45.876;12.300;2023-12-22T03:11:48;21.30;;;18.73;;
3726;SDS011;1879;45.876;12.300;2023-12-22T03:14:16;22.63;;;20.40;;
3726;SDS011;1879;45.876;12.300;2023-12-22T03:16:43;22.50;;;19.30;;
3726;SDS011;1879;45.876;12.300;2023-12-22T03:19:10;22.53;;;20.37;;
3726;SDS011;1879;45.876;12.300;2023-12-22T03:21:37;18.77;;;16.97;;
3726;SDS011;1879;45.876;12.300;2023-12-22T03:24:04;18.70;;;17.00;;
3726;SDS011;1879;45.876;12.300;2023-12-22T03:26:31;19.60;;;17.40;;
3726;SDS011;1879;45.876;12.300;2023-12-22T03:28:58;19.23;;;17.43;;
3726;SDS011;1879;45.876;12.300;2023-12-22T03:31:26;19.97;;;18.07;;
3726;SDS011;1879;45.876;12.300;2023-12-22T03:33:53;19.40;;;17.43;;
3726;SDS011;1879;45.876;12.300;2023-12-22T03:36:20;18.77;;;15.93;;
3726;SDS011;1879;45.876;12.300;2023-12-22T03:38:47;17.60;;;15.93;;
3726;SDS011;1879;45.876;12.300;2023-12-22T03:41:14;14.93;;;13.40;;
3726;SDS011;1879;45.876;12.300;2023-12-22T03:43:41;14.40;;;13.07;;
3726;SDS011;1879;45.876;12.300;2023-12-22T03:46:11;14.00;;;12.63;;
3726;SDS011;1879;45.876;12.300;2023-12-22T03:48:53;18.13;;;16.13;;
3726;SDS011;1879;45.876;12.300;2023-12-22T03:51:20;20.03;;;18.23;;
3726;SDS011;1879;45.876;12.300;2023-12-22T03:53:47;21.10;;;18.97;;
3726;SDS011;1879;45.876;12.300;2023-12-22T03:56:13;20.43;;;18.53;;
3726;SDS011;1879;45.876;12.300;2023-12-22T03:58:40;18.70;;;17.00;;
3726;SDS011;1879;45.876;12.300;2023-12-22T04:01:07;19.90;;;18.10;;
3726;SDS011;1879;45.876;12.300;2023-12-22T04:03:34;24.30;;;21.80;;
3726;SDS011;1879;45.876;12.300;2023-12-22T04:06:03;24.00;;;21.80;;
3726;SDS011;1879;45.876;12.300;2023-12-22T04:08:30;24.00;;;21.60;;
3726;SDS011;1879;45.876;12.300;2023-12-22T04:10:57;26.70;;;23.97;;
3726;SDS011;1879;45.876;12.300;2023-12-22T04:13:24;22.57;;;20.57;;
3726;SDS011;1879;45.876;12.300;2023-12-22T04:15:51;24.90;;;22.40;;
3726;SDS011;1879;45.876;12.300;2023-12-22T04:18:18;24.90;;;22.40;;
3726;SDS011;1879;45.876;12.300;2023-12-22T04:20:45;24.67;;;22.47;;
3726;SDS011;1879;45.876;12.300;2023-12-22T04:23:16;24.67;;;22.17;;
3726;SDS011;1879;45.876;12.300;2023-12-22T04:25:43;22.87;;;20.57;;
3726;SDS011;1879;45.876;12.300;2023-12-22T04:28:09;22.57;;;20.23;;
3726;SDS011;1879;45.876;12.300;2023-12-22T04:30:37;23.27;;;21.00;;
3726;SDS011;1879;45.876;12.300;2023-12-22T04:33:04;23.93;;;21.70;;
3726;SDS011;1879;45.876;12.300;2023-12-22T04:35:30;24.13;;;22.03;;
3726;SDS011;1879;45.876;12.300;2023-12-22T04:37:57;22.50;;;20.10;;
3726;SDS011;1879;45.876;12.300;2023-12-22T04:40:26;22.77;;;20.60;;
3726;SDS011;1879;45.876;12.300;2023-12-22T04:42:53;22.00;;;19.90;;
3726;SDS011;1879;45.876;12.300;2023-12-22T04:45:20;22.10;;;20.20;;
3726;SDS011;1879;45.876;12.300;2023-12-22T04:47:47;20.93;;;18.80;;
3726;SDS011;1879;45.876;12.300;2023-12-22T04:50:13;21.43;;;19.43;;
3726;SDS011;1879;45.876;12.300;2023-12-22T04:52:40;20.03;;;18.17;;
3726;SDS011;1879;45.876;12.300;2023-12-22T04:55:07;22.20;;;20.00;;
3726;SDS011;1879;45.876;12.300;2023-12-22T04:57:36;21.47;;;19.37;;
3726;SDS011;1879;45.876;12.300;2023-12-22T05:00:03;21.30;;;19.30;;
3726;SDS011;1879;45.876;12.300;2023-12-22T05:02:33;22.43;;;20.53;;
3726;SDS011;1879;45.876;12.300;2023-12-22T05:05:00;22.80;;;20.60;;
3726;SDS011;1879;45.876;12.300;2023-12-22T05:07:28;21.10;;;19.20;;
3726;SDS011;1879;45.876;12.300;2023-12-22T05:09:55;25.93;;;23.13;;
3726;SDS011;1879;45.876;12.300;2023-12-22T05:12:22;25.87;;;23.03;;
3726;SDS011;1879;45.876;12.300;2023-12-22T05:14:50;26.23;;;23.40;;
3726;SDS011;1879;45.876;12.300;2023-12-22T05:17:17;25.90;;;23.17;;
3726;SDS011;1879;45.876;12.300;2023-12-22T05:19:44;26.17;;;23.67;;
3726;SDS011;1879;45.876;12.300;2023-12-22T05:22:11;28.27;;;25.60;;
3726;SDS011;1879;45.876;12.300;2023-12-22T05:24:38;27.30;;;24.50;;
3726;SDS011;1879;45.876;12.300;2023-12-22T05:27:04;28.10;;;25.50;;
3726;SDS011;1879;45.876;12.300;2023-12-22T05:29:31;28.17;;;25.57;;
3726;SDS011;1879;45.876;12.300;2023-12-22T05:32:00;28.37;;;25.53;;
3726;SDS011;1879;45.876;12.300;2023-12-22T05:34:27;29.17;;;26.17;;
3726;SDS011;1879;45.876;12.300;2023-12-22T05:36:53;31.40;;;26.63;;
3726;SDS011;1879;45.876;12.300;2023-12-22T05:39:20;31.30;;;28.17;;
3726;SDS011;1879;45.876;12.300;2023-12-22T05:41:47;32.70;;;27.70;;
3726;SDS011;1879;45.876;12.300;2023-12-22T05:44:14;27.73;;;24.93;;
3726;SDS011;1879;45.876;12.300;2023-12-22T05:46:41;26.65;;;23.95;;
3726;SDS011;1879;45.876;12.300;2023-12-22T05:49:09;36.77;;;31.30;;
3726;SDS011;1879;45.876;12.300;2023-12-22T05:51:37;31.57;;;28.17;;
3726;SDS011;1879;45.876;12.300;2023-12-22T05:54:04;29.50;;;26.30;;
3726;SDS011;1879;45.876;12.300;2023-12-22T05:56:31;27.97;;;25.50;;
3726;SDS011;1879;45.876;12.300;2023-12-22T05:58:59;27.03;;;24.33;;
3726;SDS011;1879;45.876;12.300;2023-12-22T06:01:26;27.13;;;24.43;;
3726;SDS011;1879;45.876;12.300;2023-12-22T06:03:53;28.73;;;25.70;;
3726;SDS011;1879;45.876;12.300;2023-12-22T06:06:21;28.70;;;25.93;;
3726;SDS011;1879;45.876;12.300;2023-12-22T06:08:48;30.80;;;26.60;;
3726;SDS011;1879;45.876;12.300;2023-12-22T06:11:15;30.40;;;27.30;;
3726;SDS011;1879;45.876;12.300;2023-12-22T06:13:42;26.70;;;23.80;;
3726;SDS011;1879;45.876;12.300;2023-12-22T06:16:11;28.00;;;25.37;;
3726;SDS011;1879;45.876;12.300;2023-12-22T06:18:39;26.43;;;23.77;;
3726;SDS011;1879;45.876;12.300;2023-12-22T06:21:06;25.97;;;23.20;;
3726;SDS011;1879;45.876;12.300;2023-12-22T06:23:34;26.37;;;23.80;;
3726;SDS011;1879;45.876;12.300;2023-12-22T06:26:02;24.57;;;22.10;;
3726;SDS011;1879;45.876;12.300;2023-12-22T06:28:34;25.07;;;22.47;;
3726;SDS011;1879;45.876;12.300;2023-12-22T06:31:03;23.77;;;21.43;;
3726;SDS011;1879;45.876;12.300;2023-12-22T06:33:30;24.83;;;22.37;;
3726;SDS011;1879;45.876;12.300;2023-12-22T06:35:57;23.80;;;21.30;;
3726;SDS011;1879;45.876;12.300;2023-12-22T06:38:27;27.00;;;24.20;;
3726;SDS011;1879;45.876;12.300;2023-12-22T06:40:56;27.70;;;24.80;;
3726;SDS011;1879;45.876;12.300;2023-12-22T06:43:22;28.80;;;23.63;;
3726;SDS011;1879;45.876;12.300;2023-12-22T06:45:49;27.90;;;22.40;;
3726;SDS011;1879;45.876;12.300;2023-12-22T06:48:20;25.63;;;22.97;;
3726;SDS011;1879;45.876;12.300;2023-12-22T06:50:47;26.73;;;24.23;;
3726;SDS011;1879;45.876;12.300;2023-12-22T06:53:14;26.07;;;23.43;;
3726;SDS011;1879;45.876;12.300;2023-12-22T06:55:40;26.70;;;24.07;;
3726;SDS011;1879;45.876;12.300;2023-12-22T06:58:09;28.10;;;25.13;;
3726;SDS011;1879;45.876;12.300;2023-12-22T07:00:36;29.27;;;24.90;;
3726;SDS011;1879;45.876;12.300;2023-12-22T07:03:03;27.10;;;24.20;;
3726;SDS011;1879;45.876;12.300;2023-12-22T07:05:33;29.63;;;26.73;;
3726;SDS011;1879;45.876;12.300;2023-12-22T07:08:04;27.30;;;24.90;;
3726;SDS011;1879;45.876;12.300;2023-12-22T07:10:32;26.40;;;22.90;;
3726;SDS011;1879;45.876;12.300;2023-12-22T07:12:59;28.90;;;26.00;;
3726;SDS011;1879;45.876;12.300;2023-12-22T07:15:27;32.25;;;28.20;;
3726;SDS011;1879;45.876;12.300;2023-12-22T07:17:54;35.67;;;31.90;;
3726;SDS011;1879;45.876;12.300;2023-12-22T07:20:21;34.40;;;30.70;;
3726;SDS011;1879;45.876;12.300;2023-12-22T07:22:48;33.10;;;29.70;;
3726;SDS011;1879;45.876;12.300;2023-12-22T07:25:16;34.03;;;30.77;;
3726;SDS011;1879;45.876;12.300;2023-12-22T07:27:46;34.30;;;31.10;;
3726;SDS011;1879;45.876;12.300;2023-12-22T07:30:13;34.53;;;31.00;;
3726;SDS011;1879;45.876;12.300;2023-12-22T07:32:44;33.53;;;30.17;;
3726;SDS011;1879;45.876;12.300;2023-12-22T07:35:14;38.80;;;34.77;;
3726;SDS011;1879;45.876;12.300;2023-12-22T07:37:41;35.17;;;31.43;;
3726;SDS011;1879;45.876;12.300;2023-12-22T07:40:08;38.10;;;34.27;;
3726;SDS011;1879;45.876;12.300;2023-12-22T07:42:36;35.13;;;31.83;;
3726;SDS011;1879;45.876;12.300;2023-12-22T07:45:04;36.93;;;33.27;;
3726;SDS011;1879;45.876;12.300;2023-12-22T07:47:32;39.00;;;35.30;;
3726;SDS011;1879;45.876;12.300;2023-12-22T07:50:03;38.07;;;34.10;;
3726;SDS011;1879;45.876;12.300;2023-12-22T07:52:33;46.73;;;39.57;;
3726;SDS011;1879;45.876;12.300;2023-12-22T07:55:03;43.53;;;38.93;;
3726;SDS011;1879;45.876;12.300;2023-12-22T07:57:31;44.53;;;39.83;;
3726;SDS011;1879;45.876;12.300;2023-12-22T07:59:58;49.07;;;43.87;;
3726;SDS011;1879;45.876;12.300;2023-12-22T08:02:25;49.63;;;44.67;;
3726;SDS011;1879;45.876;12.300;2023-12-22T08:04:51;51.03;;;45.80;;
3726;SDS011;1879;45.876;12.300;2023-12-22T08:07:20;50.70;;;45.17;;
3726;SDS011;1879;45.876;12.300;2023-12-22T08:09:47;53.17;;;47.73;;
3726;SDS011;1879;45.876;12.300;2023-12-22T08:12:14;48.83;;;43.83;;
3726;SDS011;1879;45.876;12.300;2023-12-22T08:14:41;53.07;;;47.70;;
3726;SDS011;1879;45.876;12.300;2023-12-22T08:17:08;51.37;;;46.10;;
3726;SDS011;1879;45.876;12.300;2023-12-22T08:19:35;52.73;;;47.23;;
3726;SDS011;1879;45.876;12.300;2023-12-22T08:22:03;52.27;;;46.87;;
3726;SDS011;1879;45.876;12.300;2023-12-22T08:24:31;56.07;;;50.50;;
3726;SDS011;1879;45.876;12.300;2023-12-22T08:26:58;52.27;;;47.13;;
3726;SDS011;1879;45.876;12.300;2023-12-22T08:29:25;56.73;;;49.30;;
3726;SDS011;1879;45.876;12.300;2023-12-22T08:31:52;56.50;;;50.67;;
3726;SDS011;1879;45.876;12.300;2023-12-22T08:34:19;56.97;;;51.07;;
3726;SDS011;1879;45.876;12.300;2023-12-22T08:36:46;58.97;;;52.97;;
3726;SDS011;1879;45.876;12.300;2023-12-22T08:39:13;58.70;;;52.50;;
3726;SDS011;1879;45.876;12.300;2023-12-22T08:41:41;65.97;;;56.23;;
3726;SDS011;1879;45.876;12.300;2023-12-22T08:44:08;63.53;;;56.80;;
3726;SDS011;1879;45.876;12.300;2023-12-22T08:46:35;66.07;;;59.13;;
3726;SDS011;1879;45.876;12.300;2023-12-22T08:49:02;74.70;;;66.30;;
3726;SDS011;1879;45.876;12.300;2023-12-22T08:51:29;73.37;;;65.57;;
3726;SDS011;1879;45.876;12.300;2023-12-22T08:53:56;76.30;;;67.73;;
3726;SDS011;1879;45.876;12.300;2023-12-22T08:56:24;80.40;;;71.67;;
3726;SDS011;1879;45.876;12.300;2023-12-22T08:58:53;85.63;;;76.67;;
3726;SDS011;1879;45.876;12.300;2023-12-22T09:01:21;86.10;;;77.40;;
3726;SDS011;1879;45.876;12.300;2023-12-22T09:03:49;86.77;;;77.60;;
3726;SDS011;1879;45.876;12.300;2023-12-22T09:06:18;81.10;;;72.70;;
3726;SDS011;1879;45.876;12.300;2023-12-22T09:08:47;87.90;;;78.50;;
3726;SDS011;1879;45.876;12.300;2023-12-22T09:11:15;86.43;;;77.83;;
3726;SDS011;1879;45.876;12.300;2023-12-22T09:13:43;91.93;;;82.37;;
3726;SDS011;1879;45.876;12.300;2023-12-22T09:16:12;90.47;;;81.23;;
3726;SDS011;1879;45.876;12.300;2023-12-22T09:18:40;90.23;;;80.87;;
3726;SDS011;1879;45.876;12.300;2023-12-22T09:21:07;91.70;;;81.90;;
3726;SDS011;1879;45.876;12.300;2023-12-22T09:23:34;88.60;;;79.73;;
3726;SDS011;1879;45.876;12.300;2023-12-22T09:26:01;90.70;;;81.30;;
3726;SDS011;1879;45.876;12.300;2023-12-22T09:28:29;90.83;;;81.50;;
3726;SDS011;1879;45.876;12.300;2023-12-22T09:30:56;86.27;;;77.70;;
3726;SDS011;1879;45.876;12.300;2023-12-22T09:33:24;85.27;;;76.47;;
3726;SDS011;1879;45.876;12.300;2023-12-22T09:35:51;91.73;;;81.03;;
3726;SDS011;1879;45.876;12.300;2023-12-22T09:38:18;90.70;;;81.50;;
3726;SDS011;1879;45.876;12.300;2023-12-22T09:40:47;92.03;;;82.80;;
3726;SDS011;1879;45.876;12.300;2023-12-22T09:43:14;93.17;;;83.77;;
3726;SDS011;1879;45.876;12.300;2023-12-22T09:45:43;91.97;;;81.87;;
3726;SDS011;1879;45.876;12.300;2023-12-22T09:48:12;95.47;;;85.17;;
3726;SDS011;1879;45.876;12.300;2023-12-22T09:50:43;90.20;;;80.80;;
3726;SDS011;1879;45.876;12.300;2023-12-22T09:53:11;88.90;;;79.77;;
3726;SDS011;1879;45.876;12.300;2023-12-22T09:55:40;86.83;;;78.40;;
3726;SDS011;1879;45.876;12.300;2023-12-22T09:58:11;87.83;;;78.77;;
3726;SDS011;1879;45.876;12.300;2023-12-22T10:00:40;87.10;;;78.10;;
3726;SDS011;1879;45.876;12.300;2023-12-22T10:03:07;86.80;;;78.17;;
3726;SDS011;1879;45.876;12.300;2023-12-22T10:05:36;84.63;;;75.83;;
3726;SDS011;1879;45.876;12.300;2023-12-22T10:08:06;90.97;;;81.90;;
3726;SDS011;1879;45.876;12.300;2023-12-22T10:10:35;84.10;;;75.67;;
3726;SDS011;1879;45.876;12.300;2023-12-22T10:13:04;85.23;;;76.53;;
3726;SDS011;1879;45.876;12.300;2023-12-22T10:15:34;87.80;;;78.60;;
3726;SDS011;1879;45.876;12.300;2023-12-22T10:18:02;86.40;;;77.57;;
3726;SDS011;1879;45.876;12.300;2023-12-22T10:20:32;85.63;;;74.67;;
3726;SDS011;1879;45.876;12.300;2023-12-22T10:23:00;85.80;;;77.53;;
3726;SDS011;1879;45.876;12.300;2023-12-22T10:25:29;79.93;;;71.80;;
3726;SDS011;1879;45.876;12.300;2023-12-22T10:27:57;88.60;;;79.50;;
3726;SDS011;1879;45.876;12.300;2023-12-22T10:30:24;85.17;;;76.17;;
3726;SDS011;1879;45.876;12.300;2023-12-22T10:32:53;84.77;;;76.07;;
3726;SDS011;1879;45.876;12.300;2023-12-22T10:35:20;85.53;;;76.73;;
3726;SDS011;1879;45.876;12.300;2023-12-22T10:37:47;85.67;;;76.87;;
3726;SDS011;1879;45.876;12.300;2023-12-22T10:40:16;85.43;;;76.97;;
3726;SDS011;1879;45.876;12.300;2023-12-22T10:42:45;84.03;;;75.73;;
3726;SDS011;1879;45.876;12.300;2023-12-22T10:45:12;88.30;;;79.50;;
3726;SDS011;1879;45.876;12.300;2023-12-22T10:47:40;83.53;;;75.30;;
3726;SDS011;1879;45.876;12.300;2023-12-22T10:50:07;84.67;;;76.37;;
3726;SDS011;1879;45.876;12.300;2023-12-22T10:52:37;75.13;;;68.07;;
3726;SDS011;1879;45.876;12.300;2023-12-22T10:55:04;84.03;;;75.70;;
3726;SDS011;1879;45.876;12.300;2023-12-22T10:57:32;83.93;;;75.70;;
3726;SDS011;1879;45.876;12.300;2023-12-22T11:00:05;85.23;;;76.87;;
3726;SDS011;1879;45.876;12.300;2023-12-22T11:02:35;89.20;;;79.67;;
3726;SDS011;1879;45.876;12.300;2023-12-22T11:05:06;85.77;;;77.10;;
3726;SDS011;1879;45.876;12.300;2023-12-22T11:07:37;84.47;;;75.73;;
3726;SDS011;1879;45.876;12.300;2023-12-22T11:10:04;85.83;;;76.97;;
3726;SDS011;1879;45.876;12.300;2023-12-22T11:12:33;78.50;;;70.57;;
3726;SDS011;1879;45.876;12.300;2023-12-22T11:15:01;76.27;;;68.77;;
3726;SDS011;1879;45.876;12.300;2023-12-22T11:17:33;82.80;;;72.40;;
3726;SDS011;1879;45.876;12.300;2023-12-22T11:20:00;77.73;;;70.23;;
3726;SDS011;1879;45.876;12.300;2023-12-22T11:22:29;77.77;;;69.47;;
3726;SDS011;1879;45.876;12.300;2023-12-22T11:24:58;78.70;;;70.60;;
3726;SDS011;1879;45.876;12.300;2023-12-22T11:27:26;74.77;;;67.00;;
3726;SDS011;1879;45.876;12.300;2023-12-22T11:29:55;76.23;;;69.07;;
3726;SDS011;1879;45.876;12.300;2023-12-22T11:32:23;75.60;;;68.10;;
3726;SDS011;1879;45.876;12.300;2023-12-22T11:34:52;73.30;;;66.40;;
3726;SDS011;1879;45.876;12.300;2023-12-22T11:37:20;67.90;;;61.63;;
3726;SDS011;1879;45.876;12.300;2023-12-22T11:39:47;69.30;;;63.00;;
3726;SDS011;1879;45.876;12.300;2023-12-22T11:42:16;73.50;;;67.00;;
3726;SDS011;1879;45.876;12.300;2023-12-22T11:44:45;69.40;;;63.07;;
3726;SDS011;1879;45.876;12.300;2023-12-22T11:47:13;67.83;;;61.80;;
3726;SDS011;1879;45.876;12.300;2023-12-22T11:49:40;70.77;;;64.37;;
3726;SDS011;1879;45.876;12.300;2023-12-22T11:52:12;67.63;;;61.90;;
3726;SDS011;1879;45.876;12.300;2023-12-22T11:54:43;66.43;;;60.53;;
3726;SDS011;1879;45.876;12.300;2023-12-22T12:00:09;65.73;;;59.73;;
3726;SDS011;1879;45.876;12.300;2023-12-22T12:03:04;62.57;;;57.37;;
3726;SDS011;1879;45.876;12.300;2023-12-22T12:05:32;63.50;;;57.90;;
3726;SDS011;1879;45.876;12.300;2023-12-22T12:08:07;62.63;;;57.23;;
3726;SDS011;1879;45.876;12.300;2023-12-22T12:10:50;61.93;;;55.97;;
3726;SDS011;1879;45.876;12.300;2023-12-22T12:13:21;60.87;;;55.70;;
3726;SDS011;1879;45.876;12.300;2023-12-22T12:15:50;61.07;;;55.77;;
3726;SDS011;1879;45.876;12.300;2023-12-22T12:18:21;60.73;;;55.43;;
3726;SDS011;1879;45.876;12.300;2023-12-22T12:20:49;59.40;;;54.40;;
3726;SDS011;1879;45.876;12.300;2023-12-22T12:23:18;59.07;;;54.10;;
3726;SDS011;1879;45.876;12.300;2023-12-22T12:25:45;61.37;;;56.13;;
3726;SDS011;1879;45.876;12.300;2023-12-22T12:28:28;58.43;;;53.63;;
3726;SDS011;1879;45.876;12.300;2023-12-22T12:31:01;60.00;;;54.50;;
3726;SDS011;1879;45.876;12.300;2023-12-22T12:33:39;57.10;;;52.30;;
3726;SDS011;1879;45.876;12.300;2023-12-22T12:36:15;56.73;;;52.13;;
3726;SDS011;1879;45.876;12.300;2023-12-22T12:38:45;56.03;;;51.40;;
3726;SDS011;1879;45.876;12.300;2023-12-22T12:41:22;57.73;;;52.97;;
3726;SDS011;1879;45.876;12.300;2023-12-22T12:43:55;53.60;;;49.07;;
3726;SDS011;1879;45.876;12.300;2023-12-22T12:46:26;55.57;;;50.70;;
3726;SDS011;1879;45.876;12.300;2023-12-22T12:49:02;55.73;;;50.80;;
3726;SDS011;1879;45.876;12.300;2023-12-22T12:51:31;56.27;;;51.40;;
3726;SDS011;1879;45.876;12.300;2023-12-22T12:54:04;54.40;;;50.00;;
3726;SDS011;1879;45.876;12.300;2023-12-22T12:56:35;54.83;;;50.03;;
3726;SDS011;1879;45.876;12.300;2023-12-22T12:59:06;54.80;;;50.37;;
3726;SDS011;1879;45.876;12.300;2023-12-22T13:01:37;53.37;;;48.97;;
3726;SDS011;1879;45.876;12.300;2023-12-22T13:04:05;57.87;;;52.80;;
3726;SDS011;1879;45.876;12.300;2023-12-22T13:06:32;55.33;;;50.53;;
3726;SDS011;1879;45.876;12.300;2023-12-22T13:08:59;56.70;;;51.83;;
3726;SDS011;1879;45.876;12.300;2023-12-22T13:11:28;57.40;;;52.30;;
3726;SDS011;1879;45.876;12.300;2023-12-22T13:13:57;55.10;;;50.30;;
3726;SDS011;1879;45.876;12.300;2023-12-22T13:16:24;57.03;;;51.93;;
3726;SDS011;1879;45.876;12.300;2023-12-22T13:18:54;58.67;;;53.23;;
3726;SDS011;1879;45.876;12.300;2023-12-22T13:21:22;57.60;;;52.80;;
3726;SDS011;1879;45.876;12.300;2023-12-22T13:26:36;58.10;;;52.13;;
3726;SDS011;1879;45.876;12.300;2023-12-22T13:29:03;58.60;;;53.40;;
3726;SDS011;1879;45.876;12.300;2023-12-22T13:31:30;58.73;;;53.73;;
3726;SDS011;1879;45.876;12.300;2023-12-22T13:33:57;58.87;;;53.17;;
3726;SDS011;1879;45.876;12.300;2023-12-22T13:36:24;61.07;;;55.60;;
3726;SDS011;1879;45.876;12.300;2023-12-22T13:38:52;58.77;;;53.63;;
3726;SDS011;1879;45.876;12.300;2023-12-22T13:41:19;57.97;;;52.33;;
3726;SDS011;1879;45.876;12.300;2023-12-22T13:43:47;58.17;;;52.87;;
3726;SDS011;1879;45.876;12.300;2023-12-22T13:46:14;58.57;;;53.13;;
3726;SDS011;1879;45.876;12.300;2023-12-22T13:48:42;60.30;;;54.90;;
3726;SDS011;1879;45.876;12.300;2023-12-22T13:51:09;58.93;;;53.70;;
3726;SDS011;1879;45.876;12.300;2023-12-22T13:53:46;59.33;;;54.03;;
3726;SDS011;1879;45.876;12.300;2023-12-22T13:56:13;64.77;;;58.67;;
3726;SDS011;1879;45.876;12.300;2023-12-22T13:58:43;63.73;;;58.17;;
3726;SDS011;1879;45.876;12.300;2023-12-22T14:01:13;63.30;;;57.70;;
3726;SDS011;1879;45.876;12.300;2023-12-22T14:03:49;64.43;;;58.90;;
3726;SDS011;1879;45.876;12.300;2023-12-22T14:06:17;63.97;;;58.57;;
3726;SDS011;1879;45.876;12.300;2023-12-22T14:08:44;64.40;;;58.60;;
3726;SDS011;1879;45.876;12.300;2023-12-22T14:11:11;64.47;;;58.83;;
3726;SDS011;1879;45.876;12.300;2023-12-22T14:13:38;65.57;;;60.10;;
3726;SDS011;1879;45.876;12.300;2023-12-22T14:16:06;69.17;;;62.97;;
3726;SDS011;1879;45.876;12.300;2023-12-22T14:18:34;64.90;;;59.30;;
3726;SDS011;1879;45.876;12.300;2023-12-22T14:21:01;67.87;;;61.97;;
3726;SDS011;1879;45.876;12.300;2023-12-22T14:23:29;66.20;;;60.30;;
3726;SDS011;1879;45.876;12.300;2023-12-22T14:25:56;66.40;;;60.67;;
3726;SDS011;1879;45.876;12.300;2023-12-22T14:28:23;67.00;;;61.23;;
3726;SDS011;1879;45.876;12.300;2023-12-22T14:30:50;68.77;;;62.50;;
3726;SDS011;1879;45.876;12.300;2023-12-22T14:33:17;69.40;;;63.17;;
3726;SDS011;1879;45.876;12.300;2023-12-22T14:35:45;72.10;;;65.17;;
3726;SDS011;1879;45.876;12.300;2023-12-22T14:38:13;74.50;;;68.10;;
3726;SDS011;1879;45.876;12.300;2023-12-22T14:40:39;69.93;;;64.00;;
3726;SDS011;1879;45.876;12.300;2023-12-22T14:43:06;73.10;;;66.50;;
3726;SDS011;1879;45.876;12.300;2023-12-22T14:45:33;72.97;;;66.37;;